Time;durP1;ratioP1;P1;durP2;ratioP2;P2;SDS_P1;SDS_P2;PMS_P1;PMS_P2;Temp;Humidity;BMP_temperature;BMP_pressure;BME280_temperature;BME280_humidity;BME280_pressure;Samples;Min_cycle;Max_cycle;Signal;HPM_P1;HPM_P2
2022/08/12 00:42:56;;;;;;;4.82;2.80;;;;;;;21.74;57.85;100391.69;5090882;28;20135;-78
2022/08/12 00:45:21;;;;;;;5.88;2.88;;;;;;;21.85;57.35;100391.56;5090908;28;20103;-79
2022/08/12 00:47:48;;;;;;;5.13;2.95;;;;;;;21.73;57.60;100395.22;5072661;28;20115;-77
2022/08/12 00:50:18;;;;;;;5.53;2.85;;;;;;;21.54;57.39;100376.09;5091032;28;20688;-77
2022/08/12 00:52:49;;;;;;;4.07;2.67;;;;;;;21.71;57.35;100390.84;5090964;28;20492;-77
2022/08/12 00:55:15;;;;;;;5.85;2.97;;;;;;;21.75;57.44;100397.81;5072360;28;20036;-75
2022/08/12 00:57:46;;;;;;;8.23;3.00;;;;;;;21.65;56.91;100345.34;5089324;28;20032;-76
2022/08/12 01:00:23;;;;;;;6.38;2.67;;;;;;;22.00;56.70;100377.38;5072198;28;20064;-76
2022/08/12 01:02:52;;;;;;;6.28;3.17;;;;;;;22.00;56.93;100366.88;5090354;28;20156;-76
2022/08/12 01:13:44;;;;;;;9.48;3.25;;;;;;;22.11;55.35;100369.38;5070410;28;20090;-76
2022/08/12 01:16:10;;;;;;;5.68;2.95;;;;;;;22.14;54.45;100393.88;5070177;28;20038;-76
2022/08/12 01:18:38;;;;;;;8.43;2.90;;;;;;;22.17;54.92;100399.97;5068752;28;20111;-75
2022/08/12 01:21:25;;;;;;;7.97;2.90;;;;;;;22.22;54.74;100388.50;5051881;28;20094;-75
2022/08/12 01:24:32;;;;;;;4.97;3.10;;;;;;;22.08;54.75;100386.06;5085847;28;20040;-79
2022/08/12 01:27:02;;;;;;;7.22;3.33;;;;;;;22.18;58.47;100384.19;5071804;28;20479;-80
2022/08/12 01:29:30;;;;;;;4.60;2.92;;;;;;;22.10;59.22;100386.88;5072598;28;20034;-76
2022/08/12 01:31:58;;;;;;;8.65;3.00;;;;;;;22.20;60.61;100394.69;5050721;28;20029;-79
2022/08/12 01:34:30;;;;;;;5.75;3.20;;;;;;;22.01;62.78;100389.66;5051143;28;20041;-77
2022/08/12 01:37:01;;;;;;;5.95;3.25;;;;;;;22.00;64.07;100393.16;5051133;28;20116;-77
2022/08/12 01:39:32;;;;;;;8.98;3.50;;;;;;;21.85;64.27;100361.81;5050850;28;20486;-78
2022/08/12 01:42:03;;;;;;;8.15;3.20;;;;;;;21.90;65.25;100373.13;5050546;28;20037;-76
2022/08/12 01:44:31;;;;;;;6.53;3.03;;;;;;;21.67;64.89;100341.84;5034368;28;20041;-79
2022/08/12 01:47:22;;;;;;;9.13;3.63;;;;;;;21.81;65.87;100377.59;5051253;28;20522;-78
2022/08/12 01:50:06;;;;;;;8.35;3.42;;;;;;;21.88;65.75;100380.16;5033711;28;20056;-77
2022/08/12 01:52:58;;;;;;;9.65;3.40;;;;;;;21.91;65.79;100369.63;5050744;28;20621;-78
2022/08/12 01:55:32;;;;;;;9.32;3.20;;;;;;;21.95;65.89;100380.06;5033981;28;20032;-73
2022/08/12 01:58:02;;;;;;;5.68;3.28;;;;;;;21.93;66.47;100381.84;5050737;28;20048;-73
2022/08/12 02:00:47;;;;;;;5.75;3.20;;;;;;;21.89;66.42;100361.72;5050462;28;20033;-78
2022/08/12 02:12:39;;;;;;;7.05;3.60;;;;;;;21.98;66.06;100371.25;5081342;28;20060;-75
2022/08/12 02:15:11;;;;;;;8.50;3.58;;;;;;;21.97;66.38;100375.66;5072541;28;20024;-80
2022/08/12 02:17:49;;;;;;;4.50;3.10;;;;;;;22.01;65.33;100368.63;5054378;28;20470;-76
2022/08/12 02:20:22;;;;;;;7.00;3.78;;;;;;;21.98;64.39;100361.63;5054504;28;20028;-81
2022/08/12 02:22:50;;;;;;;5.53;3.17;;;;;;;21.92;61.50;100364.34;5072140;28;20029;-76
2022/08/12 02:25:25;;;;;;;9.20;2.90;;;;;;;21.88;59.17;100359.13;5054244;28;20028;-76
2022/08/12 02:27:54;;;;;;;8.48;3.30;;;;;;;21.96;57.34;100367.81;5054108;28;20424;-75
2022/08/12 02:30:24;;;;;;;5.68;3.22;;;;;;;21.91;57.37;100364.38;5053799;28;20577;-79
2022/08/12 02:32:53;;;;;;;11.07;3.58;;;;;;;21.88;56.50;100365.28;5072049;28;20044;-79
2022/08/12 02:35:25;;;;;;;9.03;3.00;;;;;;;21.87;55.70;100368.78;5053723;28;20166;-76
2022/08/12 02:37:54;;;;;;;7.03;3.30;;;;;;;21.85;56.84;100367.91;5071980;28;20028;-80
2022/08/12 02:40:22;;;;;;;9.25;3.40;;;;;;;21.68;57.59;100361.97;5071836;28;20156;-75
2022/08/12 02:42:53;;;;;;;10.02;3.47;;;;;;;21.61;58.59;100366.44;5053870;28;20407;-74
2022/08/12 02:45:26;;;;;;;6.78;3.17;;;;;;;21.38;59.07;100335.97;5083420;28;20032;-79
2022/08/12 02:47:54;;;;;;;7.50;2.97;;;;;;;21.42;60.05;100363.97;5084578;28;20566;-78
2022/08/12 02:50:21;;;;;;;7.00;3.03;;;;;;;21.39;60.20;100368.38;5071900;28;20068;-77
2022/08/12 02:52:50;;;;;;;8.00;3.35;;;;;;;21.37;60.38;100354.38;5053576;28;20410;-76
2022/08/12 02:55:20;;;;;;;5.85;3.20;;;;;;;21.28;60.20;100371.09;5053701;28;20055;-75
2022/08/12 02:57:47;;;;;;;5.78;3.38;;;;;;;21.05;60.67;100369.53;5071385;28;20486;-75
2022/08/12 03:00:15;;;;;;;8.20;3.38;;;;;;;20.99;60.86;100375.69;5053405;28;20571;-75
2022/08/12 03:02:44;;;;;;;6.57;3.30;;;;;;;20.91;61.43;100371.38;5076421;28;20496;-75
2022/08/12 03:05:13;;;;;;;5.55;3.35;;;;;;;20.96;61.13;100374.81;5081859;28;20504;-77
2022/08/12 03:07:46;;;;;;;7.20;3.38;;;;;;;20.96;58.98;100372.19;5089187;28;20413;-76
2022/08/12 03:10:13;;;;;;;6.47;3.35;;;;;;;21.02;60.02;100374.78;5070659;28;20035;-77
2022/08/12 03:12:41;;;;;;;14.48;3.78;;;;;;;20.99;60.33;100370.44;5084758;28;20073;-78
2022/08/12 03:15:11;;;;;;;9.43;3.50;;;;;;;21.07;59.98;100378.28;5062357;28;20032;-74
2022/08/12 03:17:42;;;;;;;8.55;3.70;;;;;;;21.17;60.33;100382.56;5063580;28;20043;-77
2022/08/12 03:20:10;;;;;;;7.95;3.83;;;;;;;21.17;60.17;100389.53;5062769;28;20024;-75
2022/08/12 03:22:40;;;;;;;9.05;3.78;;;;;;;21.03;60.55;100378.31;5079712;28;20116;-76
2022/08/12 03:25:15;;;;;;;7.18;4.00;;;;;;;21.05;60.49;100394.88;5062944;28;20456;-77
2022/08/12 03:27:48;;;;;;;9.57;4.00;;;;;;;21.13;60.33;100399.22;5063692;28;20055;-77
2022/08/12 03:30:16;;;;;;;12.20;3.67;;;;;;;21.11;60.36;100392.22;5078514;28;20029;-78
2022/08/12 03:32:46;;;;;;;7.43;3.30;;;;;;;20.98;60.79;100388.81;5079828;28;20028;-79
2022/08/12 03:35:16;;;;;;;14.05;3.97;;;;;;;20.88;61.52;100382.75;5062206;28;20020;-76
2022/08/12 03:37:44;;;;;;;8.25;3.95;;;;;;;20.75;63.56;100391.59;5063335;28;20030;-78
2022/08/12 03:41:32;;;;;;;6.95;3.60;;;;;;;20.51;64.07;100396.06;5062686;28;20152;-80
2022/08/12 04:02:16;;;;;;;10.65;4.25;;;;;;;20.99;58.30;100393.19;5084110;28;20167;-71
2022/08/12 04:04:44;;;;;;;11.05;4.80;;;;;;;20.96;59.08;100395.81;5090380;28;20175;-70
2022/08/12 04:07:11;;;;;;;12.43;4.50;;;;;;;20.87;59.92;100398.53;5081535;28;20118;-72
2022/08/12 04:09:42;;;;;;;12.27;4.82;;;;;;;20.84;60.66;100400.28;5075201;28;20028;-74
2022/08/12 04:14:55;;;;;;;12.20;4.82;;;;;;;20.85;61.90;100402.03;5073539;28;20119;-77
2022/08/12 04:17:21;;;;;;;11.45;4.28;;;;;;;20.79;64.19;100399.44;5085818;28;20469;-75
2022/08/12 04:19:47;;;;;;;12.18;4.30;;;;;;;20.73;65.11;100404.72;5085313;28;20116;-73
2022/08/12 04:22:14;;;;;;;8.85;3.97;;;;;;;20.81;67.14;100408.19;5081751;28;20470;-74
2022/08/12 04:24:43;;;;;;;11.40;3.85;;;;;;;20.84;67.50;100408.16;5085723;28;20062;-75
2022/08/12 04:27:10;;;;;;;10.15;4.05;;;;;;;20.95;67.95;100410.72;5090372;28;20024;-76
2022/08/12 04:29:37;;;;;;;9.15;3.90;;;;;;;20.88;69.91;100414.25;5090574;28;20039;-76
2022/08/12 04:32:05;;;;;;;9.75;4.10;;;;;;;20.41;71.12;100381.25;5090701;28;20402;-75
2022/08/12 04:34:31;;;;;;;13.48;4.93;;;;;;;20.13;69.89;100418.09;5090621;28;20024;-74
2022/08/12 04:36:57;;;;;;;9.38;3.85;;;;;;;20.15;69.30;100404.09;5090518;28;20028;-74
2022/08/12 04:39:25;;;;;;;11.88;4.03;;;;;;;19.76;69.28;100323.84;5091016;28;20405;-74
2022/08/12 04:41:51;;;;;;;9.23;4.40;;;;;;;20.34;68.17;100411.91;5087492;28;20490;-75
2022/08/12 04:44:17;;;;;;;10.52;4.10;;;;;;;20.38;68.52;100412.75;5072405;28;20406;-73
2022/08/12 04:46:43;;;;;;;8.23;4.47;;;;;;;20.32;68.68;100419.75;5090253;28;20032;-73
2022/08/12 04:49:08;;;;;;;12.60;4.32;;;;;;;20.31;68.97;100412.78;5081026;28;20682;-75
2022/08/12 04:51:35;;;;;;;16.52;4.75;;;;;;;20.50;69.50;100423.19;5079657;28;20044;-70
2022/08/12 04:54:02;;;;;;;10.95;5.00;;;;;;;20.24;68.25;100352.50;5078147;28;20059;-71
2022/08/12 04:56:28;;;;;;;12.75;4.85;;;;;;;20.67;69.32;100409.97;5080828;28;20027;-74
2022/08/12 04:58:55;;;;;;;15.73;4.90;;;;;;;20.82;69.49;100423.06;5079029;28;20039;-71
2022/08/12 05:01:20;;;;;;;13.10;4.57;;;;;;;20.85;70.50;100414.28;5062003;28;20035;-71
2022/08/12 05:03:50;;;;;;;12.07;4.53;;;;;;;20.91;70.40;100413.34;5080834;28;20023;-74
2022/08/12 05:06:15;;;;;;;9.90;5.03;;;;;;;20.97;70.34;100410.69;5082951;28;20059;-74
2022/08/12 05:08:41;;;;;;;11.75;4.32;;;;;;;21.07;68.95;100414.13;5083547;28;20477;-75
2022/08/12 05:11:06;;;;;;;7.95;4.38;;;;;;;21.01;69.72;100410.66;5081985;28;20032;-75
2022/08/12 05:13:38;;;;;;;12.30;4.50;;;;;;;21.19;67.38;100418.44;5084152;28;20163;-74
2022/08/12 05:16:05;;;;;;;12.20;4.03;;;;;;;21.34;66.16;100420.91;5084745;28;20032;-75
2022/08/12 05:18:36;;;;;;;9.80;4.65;;;;;;;21.45;65.98;100407.72;5047244;28;20036;-74
2022/08/12 05:21:03;;;;;;;12.43;4.22;;;;;;;21.57;65.50;100409.38;5064577;28;20464;-76
2022/08/12 05:23:32;;;;;;;9.00;4.03;;;;;;;21.48;65.43;100411.19;5084795;28;20025;-73
2022/08/12 05:25:59;;;;;;;10.45;4.70;;;;;;;21.50;65.59;100413.78;5082146;28;20021;-71
2022/08/12 05:28:27;;;;;;;7.07;3.92;;;;;;;21.70;65.25;100418.88;5083366;28;20035;-71
2022/08/12 05:30:54;;;;;;;10.27;4.03;;;;;;;21.53;65.58;100423.38;5086402;28;20058;-71
2022/08/12 05:33:20;;;;;;;9.25;3.92;;;;;;;21.42;65.15;100410.34;5082388;28;20036;-72
2022/08/12 05:35:46;;;;;;;9.88;4.10;;;;;;;21.53;65.26;100418.13;5055214;28;20183;-77
2022/08/12 05:41:05;;;;;;;10.38;3.88;;;;;;;21.81;65.11;100411.75;5082841;28;20031;-72
2022/08/12 05:43:33;;;;;;;6.85;3.90;;;;;;;22.07;63.40;100420.22;5082411;28;20468;-73
2022/08/12 05:45:58;;;;;;;7.60;4.13;;;;;;;22.24;62.49;100413.03;5082300;28;20116;-78
2022/08/12 05:48:24;;;;;;;8.20;4.07;;;;;;;22.34;62.37;100416.41;5079818;28;20143;-77
2022/08/12 05:50:51;;;;;;;14.35;4.20;;;;;;;22.42;61.61;100414.59;5069166;28;20052;-77
2022/08/12 05:53:16;;;;;;;8.30;4.53;;;;;;;22.43;61.02;100397.03;5070581;28;20055;-77
2022/08/12 05:55:42;;;;;;;13.45;4.80;;;;;;;22.50;60.55;100400.47;5070620;28;20458;-77
2022/08/12 05:58:07;;;;;;;11.82;4.47;;;;;;;22.70;61.50;100414.19;5070453;28;20063;-74
2022/08/12 06:00:34;;;;;;;19.73;5.88;;;;;;;22.81;59.38;100413.19;5070552;28;20041;-73
2022/08/12 06:03:01;;;;;;;12.05;4.50;;;;;;;23.05;56.96;100407.56;5070359;28;20028;-76
2022/08/12 06:05:28;;;;;;;10.27;4.30;;;;;;;23.04;56.55;100397.03;5053490;28;20076;-74
2022/08/12 06:07:54;;;;;;;8.48;3.95;;;;;;;22.98;57.22;100405.03;5070523;28;20028;-78
2022/08/12 06:10:20;;;;;;;9.82;3.75;;;;;;;22.97;57.83;100404.19;5070278;28;20524;-74
2022/08/12 06:12:48;;;;;;;7.90;3.47;;;;;;;22.99;57.12;100398.88;5070092;28;20090;-77
2022/08/12 06:15:17;;;;;;;12.60;3.72;;;;;;;22.89;57.45;100369.19;5069896;28;20544;-75
2022/08/12 06:17:43;;;;;;;14.88;3.22;;;;;;;23.26;57.58;100397.59;5070131;28;20033;-74
2022/08/12 06:20:14;;;;;;;8.40;3.35;;;;;;;23.49;55.60;100396.31;5070289;28;20537;-75
2022/08/12 06:22:44;;;;;;;7.53;3.28;;;;;;;23.73;56.18;100389.75;5071287;28;20577;-75
2022/08/12 06:25:17;;;;;;;7.80;3.22;;;;;;;23.79;56.14;100386.13;5091270;28;20023;-75
2022/08/12 06:27:47;;;;;;;5.57;3.22;;;;;;;24.00;54.72;100383.09;5092895;28;20042;-75
2022/08/12 06:30:18;;;;;;;5.97;2.80;;;;;;;24.02;55.08;100391.84;5092875;28;20024;-75
2022/08/12 06:32:43;;;;;;;5.80;3.03;;;;;;;23.87;54.19;100347.31;5069832;28;20706;-76
2022/08/12 06:35:11;;;;;;;7.78;3.20;;;;;;;24.30;56.10;100386.00;5069753;28;20066;-78
2022/08/12 06:37:41;;;;;;;12.57;4.15;;;;;;;24.38;54.54;100383.19;5069840;28;20105;-73
2022/08/12 06:40:09;;;;;;;10.43;3.58;;;;;;;24.52;54.13;100390.81;5069744;28;20024;-73
2022/08/12 06:42:47;;;;;;;7.40;2.55;;;;;;;24.49;54.86;100388.25;5069645;28;20040;-73
2022/08/12 06:45:14;;;;;;;7.60;2.70;;;;;;;24.53;52.97;100382.00;5069704;28;20422;-73
2022/08/12 06:47:40;;;;;;;4.18;2.70;;;;;;;24.38;52.50;100373.50;5069638;28;20031;-73
2022/08/12 06:50:06;;;;;;;4.45;2.70;;;;;;;24.60;51.65;100378.31;5069034;28;20604;-75
2022/08/12 06:52:31;;;;;;;7.68;2.92;;;;;;;24.13;51.50;100278.22;5069503;28;20597;-76
2022/08/12 06:54:58;;;;;;;5.68;2.85;;;;;;;24.97;51.15;100372.22;5069444;28;20032;-78
2022/08/12 06:57:28;;;;;;;3.58;2.47;;;;;;;25.19;53.01;100374.31;5069299;28;20123;-76
2022/08/12 06:59:54;;;;;;;7.25;2.58;;;;;;;25.22;51.12;100379.50;5052574;28;20032;-76
2022/08/12 07:02:21;;;;;;;5.05;2.83;;;;;;;25.30;49.63;100368.75;5069260;28;20115;-78
2022/08/12 07:04:49;;;;;;;4.18;2.58;;;;;;;25.52;49.16;100369.97;5035728;28;20036;-74
2022/08/12 07:07:15;;;;;;;3.58;2.58;;;;;;;25.52;49.04;100363.78;5069315;28;20028;-73
2022/08/12 07:09:41;;;;;;;5.78;2.58;;;;;;;25.46;49.67;100374.53;5075932;28;20047;-76
2022/08/12 07:12:15;;;;;;;10.93;2.80;;;;;;;25.42;49.19;100362.31;5091755;28;20063;-74
2022/08/12 07:15:00;;;;;;;3.15;2.65;;;;;;;25.49;48.67;100372.66;5029172;28;20037;-73
2022/08/12 07:17:34;;;;;;;6.53;2.30;;;;;;;25.57;48.14;100355.75;5009661;28;20100;-76
2022/08/12 07:19:59;;;;;;;3.67;2.47;;;;;;;25.58;48.00;100370.69;5029212;28;20025;-74
2022/08/12 07:22:45;;;;;;;6.85;2.85;;;;;;;25.58;50.16;100371.56;5012420;28;20576;-76
2022/08/12 07:27:54;;;;;;;4.53;2.75;;;;;;;25.51;49.88;100351.50;5008757;28;20037;-78
2022/08/12 07:30:21;;;;;;;9.15;2.67;;;;;;;25.62;47.86;100357.38;5009165;28;20038;-75
2022/08/12 07:32:50;;;;;;;5.85;2.42;;;;;;;25.84;48.79;100356.75;5009189;28;20038;-74
2022/08/12 07:35:17;;;;;;;3.70;2.70;;;;;;;26.03;47.58;100351.78;5008867;28;20038;-74
2022/08/12 07:37:43;;;;;;;4.50;2.50;;;;;;;26.26;47.02;100348.50;5009091;28;20465;-77
2022/08/12 07:40:10;;;;;;;5.03;2.45;;;;;;;26.30;48.04;100331.59;5008728;28;20041;-74
2022/08/12 07:42:37;;;;;;;3.40;2.17;;;;;;;26.46;46.43;100336.44;5008864;28;20033;-73
2022/08/12 07:45:03;;;;;;;2.80;2.40;;;;;;;26.62;44.21;100332.38;5016998;28;20048;-73
2022/08/12 07:47:29;;;;;;;4.78;2.45;;;;;;;26.71;44.93;100331.22;5068422;28;20429;-75
2022/08/12 07:50:00;;;;;;;4.72;2.45;;;;;;;26.93;47.43;100339.38;5067633;28;20135;-71
2022/08/12 07:52:26;;;;;;;3.17;2.42;;;;;;;27.00;45.26;100333.88;5068730;28;20035;-76
2022/08/12 07:54:52;;;;;;;4.40;2.67;;;;;;;27.15;48.40;100335.13;5068204;28;20048;-73
2022/08/12 07:57:18;;;;;;;3.20;2.38;;;;;;;27.01;44.64;100320.56;5090049;28;20492;-74
2022/08/12 07:59:44;;;;;;;7.10;2.65;;;;;;;27.09;45.61;100331.78;5090673;28;20040;-74
2022/08/12 08:02:09;;;;;;;4.47;2.15;;;;;;;27.03;45.19;100317.84;5071636;28;20036;-79
2022/08/12 08:07:20;;;;;;;3.03;2.20;;;;;;;27.40;44.87;100341.34;5090722;28;20039;-77
2022/08/12 08:10:09;;;;;;;4.53;2.30;;;;;;;27.53;42.17;100325.00;5068212;28;20418;-78
2022/08/12 08:12:56;;;;;;;4.22;2.38;;;;;;;27.64;42.63;100332.56;5068035;28;20090;-78
2022/08/12 08:15:29;;;;;;;5.97;2.30;;;;;;;27.73;42.11;100314.53;5067880;28;20510;-78
2022/08/12 08:18:01;;;;;;;5.35;2.00;;;;;;;27.63;44.14;100325.53;5068032;28;20498;-78
2022/08/12 08:20:29;;;;;;;3.13;1.90;;;;;;;27.69;40.93;100323.53;5064014;28;20029;-74
2022/08/12 08:22:57;;;;;;;3.75;2.08;;;;;;;27.96;43.23;100319.91;5061983;28;20072;-78
2022/08/12 08:25:31;;;;;;;7.25;2.58;;;;;;;27.93;41.81;100313.78;5067918;28;20115;-74
2022/08/12 08:28:02;;;;;;;5.50;2.33;;;;;;;27.60;40.83;100269.03;5067803;28;20044;-75
2022/08/12 08:30:29;;;;;;;6.55;2.58;;;;;;;27.75;41.03;100303.84;5067876;28;20040;-74
2022/08/12 08:32:55;;;;;;;7.90;2.35;;;;;;;27.84;43.49;100319.44;5050926;28;20028;-73
2022/08/12 08:35:22;;;;;;;5.47;2.33;;;;;;;27.97;40.64;100309.22;5067924;28;20486;-72
2022/08/12 08:37:50;;;;;;;3.50;2.25;;;;;;;27.97;41.92;100295.94;5067912;28;20123;-75
2022/08/12 08:43:00;;;;;;;2.25;1.90;;;;;;;28.21;40.64;100296.84;5071931;28;20031;-73
2022/08/12 08:45:27;;;;;;;12.02;2.55;;;;;;;28.17;38.81;100283.75;5071702;28;20478;-75
2022/08/12 08:47:53;;;;;;;3.60;2.33;;;;;;;28.05;41.37;100263.84;5086392;28;20104;-76
2022/08/12 08:50:19;;;;;;;5.05;2.30;;;;;;;28.35;38.43;100287.44;5076274;28;20557;-74
2022/08/12 08:52:47;;;;;;;4.45;2.30;;;;;;;28.45;40.30;100293.25;5094265;28;20077;-76
2022/08/12 08:55:15;;;;;;;2.90;1.77;;;;;;;28.67;36.65;100290.59;5094069;28;20409;-75
2022/08/12 08:57:49;;;;;;;3.92;2.10;;;;;;;28.80;40.13;100288.28;5094456;28;20028;-73
2022/08/12 09:00:17;;;;;;;3.30;1.92;;;;;;;28.73;39.09;100279.72;5094407;28;20740;-73
2022/08/12 09:02:43;;;;;;;5.10;2.30;;;;;;;28.88;38.65;100287.03;5058962;28;20536;-73
2022/08/12 09:05:10;;;;;;;2.92;2.15;;;;;;;28.70;37.31;100275.41;5094451;28;20035;-77
2022/08/12 09:07:47;;;;;;;4.15;2.03;;;;;;;28.78;39.91;100272.44;5094186;28;20028;-76
2022/08/12 09:10:18;;;;;;;4.97;2.28;;;;;;;28.59;38.10;100280.28;5094246;28;20032;-74
2022/08/12 09:15:34;;;;;;;4.13;1.80;;;;;;;28.79;38.68;100268.84;5094405;28;20511;-78
2022/08/12 09:18:00;;;;;;;4.60;2.30;;;;;;;28.76;37.25;100253.03;5094045;28;20107;-78
2022/08/12 09:20:29;;;;;;;1.92;1.65;;;;;;;28.70;36.24;100261.28;5090148;28;20473;-73
2022/08/12 09:23:00;;;;;;;3.10;2.08;;;;;;;28.88;39.48;100244.53;5064394;28;20425;-79
2022/08/12 09:25:26;;;;;;;4.20;1.90;;;;;;;29.19;36.48;100252.97;5073434;28;20033;-73
2022/08/12 09:27:53;;;;;;;8.57;2.03;;;;;;;29.49;36.79;100253.41;5081371;28;20030;-73
2022/08/12 09:30:20;;;;;;;4.50;2.20;;;;;;;29.75;38.26;100250.50;5082637;28;20025;-78
2022/08/12 09:32:49;;;;;;;4.05;2.08;;;;;;;29.98;35.04;100242.34;5082935;28;20116;-74
2022/08/12 09:35:22;;;;;;;5.82;2.45;;;;;;;30.28;35.08;100244.44;5084172;28;20028;-74
2022/08/12 09:37:51;;;;;;;3.92;2.10;;;;;;;30.48;33.21;100250.56;5083293;28;20561;-75
2022/08/12 09:40:19;;;;;;;2.67;1.90;;;;;;;30.60;34.30;100249.13;5070107;28;20545;-75
2022/08/12 09:45:31;;;;;;;4.13;1.85;;;;;;;30.94;32.03;100266.94;5082370;28;20023;-76
2022/08/12 09:48:05;;;;;;;4.78;1.95;;;;;;;31.04;30.41;100235.34;5082933;28;20069;-72
2022/08/12 09:50:31;;;;;;;4.53;1.90;;;;;;;31.21;34.00;100242.44;5089339;28;20190;-76
2022/08/12 09:53:15;;;;;;;2.58;2.10;;;;;;;30.81;33.57;100165.41;5063529;28;20037;-81
2022/08/12 09:55:46;;;;;;;3.55;2.13;;;;;;;31.36;30.90;100243.44;5026342;28;20048;-75
2022/08/12 09:58:15;;;;;;;2.85;1.90;;;;;;;31.46;33.25;100244.66;5019507;28;20124;-79
2022/08/12 10:00:45;;;;;;;3.30;1.90;;;;;;;31.45;30.30;100226.94;5020540;28;20038;-77
2022/08/12 10:03:13;;;;;;;3.05;2.03;;;;;;;31.27;31.85;100203.94;5021230;28;20044;-77
2022/08/12 10:05:47;;;;;;;5.20;2.00;;;;;;;31.39;33.06;100232.63;5020268;28;20041;-77
2022/08/12 10:08:15;;;;;;;4.32;1.88;;;;;;;31.37;32.05;100229.16;5021938;28;20041;-80
2022/08/12 10:13:41;;;;;;;1.92;1.67;;;;;;;31.38;31.24;100220.22;5018904;28;20073;-81
2022/08/12 10:16:17;;;;;;;3.55;2.25;;;;;;;31.31;29.64;100208.16;5019268;28;20087;-77
2022/08/12 10:18:46;;;;;;;4.68;1.83;;;;;;;31.58;32.14;100215.59;5004634;28;20028;-75
2022/08/12 10:21:17;;;;;;;4.88;2.22;;;;;;;31.86;33.14;100216.75;5021786;28;20443;-80
2022/08/12 10:23:45;;;;;;;5.18;1.70;;;;;;;31.95;30.81;100208.22;5019278;28;20035;-77
2022/08/12 10:31:48;;;;;;;3.83;1.90;;;;;;;31.14;30.24;100207.25;5029867;28;20442;-79
2022/08/12 10:34:14;;;;;;;7.32;2.75;;;;;;;31.39;32.04;100191.72;5029553;28;20069;-75
2022/08/12 10:36:40;;;;;;;15.45;4.50;;;;;;;31.71;30.23;100189.97;5029481;28;20061;-77
2022/08/12 10:39:07;;;;;;;11.85;4.05;;;;;;;31.86;29.44;100196.25;5029804;28;20044;-76
2022/08/12 10:44:17;;;;;;;8.77;3.38;;;;;;;32.30;28.09;100192.03;5028982;28;20044;-74
2022/08/12 10:46:44;;;;;;;4.53;2.35;;;;;;;32.55;31.49;100190.53;5033043;28;20033;-77
2022/08/12 10:49:11;;;;;;;4.65;2.35;;;;;;;32.42;28.47;100180.59;5035216;28;20223;-75
2022/08/12 10:51:39;;;;;;;5.20;1.95;;;;;;;32.53;29.11;100187.13;5029422;28;20064;-72
2022/08/12 10:54:06;;;;;;;5.00;1.80;;;;;;;32.68;27.74;100188.88;5029394;28;20116;-73
2022/08/12 10:56:33;;;;;;;3.80;2.08;;;;;;;32.81;29.68;100166.78;5034211;28;20033;-75
2022/08/12 10:58:58;;;;;;;5.07;3.15;;;;;;;32.95;29.77;100176.59;5029503;28;20065;-76
2022/08/12 11:01:24;;;;;;;6.60;2.30;;;;;;;32.78;27.68;100135.75;5028347;28;20037;-73
2022/08/12 11:03:50;;;;;;;2.35;1.95;;;;;;;33.02;29.37;100160.13;5028019;28;20502;-75
2022/08/12 11:06:20;;;;;;;2.20;1.85;;;;;;;33.18;28.97;100167.16;5047099;28;20048;-76
2022/08/12 11:08:45;;;;;;;2.67;1.85;;;;;;;33.20;28.06;100170.63;5066178;28;20770;-77
2022/08/12 11:11:16;;;;;;;5.03;2.00;;;;;;;33.17;28.75;100169.00;5084764;28;20089;-73
2022/08/12 11:13:43;;;;;;;6.03;1.90;;;;;;;32.85;28.12;100161.16;5096171;28;20059;-79
2022/08/12 11:16:08;;;;;;;3.40;1.95;;;;;;;32.42;30.12;100159.22;5091524;28;20036;-76
2022/08/12 11:18:33;;;;;;;4.18;1.83;;;;;;;31.83;29.28;100121.69;5077882;28;20062;-76
2022/08/12 11:20:59;;;;;;;5.18;1.90;;;;;;;31.96;29.41;100148.53;5068930;28;20062;-75
2022/08/12 11:23:26;;;;;;;5.32;2.10;;;;;;;32.21;30.78;100149.81;5070216;28;20440;-76
2022/08/12 11:25:53;;;;;;;2.97;1.90;;;;;;;32.36;27.84;100140.03;5070549;28;20025;-74
2022/08/12 11:28:18;;;;;;;4.90;1.92;;;;;;;32.28;29.40;100142.28;5070464;28;20025;-75
2022/08/12 11:30:44;;;;;;;3.53;2.00;;;;;;;32.61;29.76;100131.38;5071231;28;20389;-76
2022/08/12 11:33:11;;;;;;;2.17;1.85;;;;;;;32.68;26.95;100097.16;5090175;28;20020;-78
2022/08/12 11:35:42;;;;;;;2.80;1.67;;;;;;;33.05;28.47;100125.16;5090301;28;20060;-76
2022/08/12 11:38:10;;;;;;;3.70;1.98;;;;;;;33.02;26.52;100117.31;5072198;28;20031;-75
2022/08/12 11:40:37;;;;;;;2.45;1.90;;;;;;;33.21;26.41;100100.09;5090444;28;20069;-78
2022/08/12 11:43:02;;;;;;;4.82;1.75;;;;;;;33.13;28.23;100124.66;5090353;28;20032;-74
2022/08/12 11:45:29;;;;;;;5.88;2.00;;;;;;;33.00;29.12;100111.22;5090059;28;20078;-74
2022/08/12 11:48:00;;;;;;;4.95;2.03;;;;;;;32.97;27.62;100119.41;5089861;28;20081;-75
2022/08/12 11:50:26;;;;;;;3.67;2.20;;;;;;;33.17;28.23;100114.63;5072649;28;20075;-75
2022/08/12 11:52:51;;;;;;;3.90;1.90;;;;;;;33.51;26.36;100121.38;5089922;28;20107;-74
2022/08/12 11:55:18;;;;;;;3.65;2.00;;;;;;;33.54;29.34;100112.28;5089986;28;20032;-76
2022/08/12 11:57:54;;;;;;;3.97;1.90;;;;;;;33.78;28.28;100107.13;5090178;28;20115;-77
2022/08/12 12:00:21;;;;;;;2.90;2.08;;;;;;;33.69;27.43;100110.41;5090038;28;20457;-76
2022/08/12 12:02:48;;;;;;;3.55;2.17;;;;;;;33.38;27.19;100107.91;5089288;28;20024;-75
2022/08/12 12:05:15;;;;;;;5.05;1.90;;;;;;;33.12;28.10;100100.69;5072131;28;20024;-76
2022/08/12 12:07:44;;;;;;;4.18;1.75;;;;;;;32.99;27.67;100101.47;5089844;28;20020;-76
2022/08/12 12:10:14;;;;;;;;;;;;;;;32.98;29.39;100101.56;5090457;28;20024;-76
2022/08/12 12:12:40;;;;;;;2.33;1.70;;;;;;;33.09;28.13;100084.81;5089898;28;19922;-72
2022/08/12 12:15:07;;;;;;;2.58;1.88;;;;;;;33.39;27.10;100084.72;5086439;28;20036;-77
2022/08/12 12:17:38;;;;;;;3.75;1.88;;;;;;;33.74;26.76;100083.34;5089905;28;20123;-74
2022/08/12 12:20:09;;;;;;;3.85;1.95;;;;;;;33.96;25.86;100075.63;5072029;28;20111;-75
2022/08/12 12:22:40;;;;;;;3.22;2.03;;;;;;;34.28;24.77;100077.06;5089605;28;20081;-72
2022/08/12 12:25:09;;;;;;;3.22;2.00;;;;;;;34.35;24.04;100052.44;5085068;28;20043;-74
2022/08/12 12:27:48;;;;;;;2.92;2.10;;;;;;;34.16;24.54;100034.06;5089389;28;20038;-76
2022/08/12 12:30:14;;;;;;;4.38;2.08;;;;;;;34.47;24.42;100063.25;5063917;28;20169;-75
2022/08/12 12:32:39;;;;;;;2.17;1.95;;;;;;;34.18;24.45;100061.63;5069756;28;20863;-74
2022/08/12 12:35:05;;;;;;;2.72;2.00;;;;;;;34.08;26.31;100040.94;5039265;28;20040;-73
2022/08/12 12:37:31;;;;;;;3.45;2.08;;;;;;;34.53;24.26;100070.88;5069430;28;20115;-76
2022/08/12 12:39:57;;;;;;;2.70;1.90;;;;;;;34.73;28.38;100068.59;5069577;28;20039;-74
2022/08/12 12:42:22;;;;;;;4.75;2.25;;;;;;;34.85;24.88;100054.31;5069227;28;20085;-76
2022/08/12 12:44:48;;;;;;;3.97;1.90;;;;;;;35.01;25.56;100064.00;5050187;28;20028;-73
2022/08/12 12:47:15;;;;;;;3.70;2.10;;;;;;;35.05;26.68;100065.47;5069360;28;20456;-75
2022/08/12 12:49:42;;;;;;;3.15;2.03;;;;;;;35.05;25.79;100044.03;5046262;28;20064;-75
2022/08/12 12:52:07;;;;;;;7.18;2.03;;;;;;;35.19;24.42;100040.31;5046517;28;20052;-75
2022/08/12 12:54:33;;;;;;;5.53;2.20;;;;;;;35.38;22.92;100051.44;5046731;28;20495;-72
2022/08/12 12:56:58;;;;;;;3.88;2.10;;;;;;;35.36;22.48;100029.19;5046132;28;20033;-74
2022/08/12 12:59:26;;;;;;;3.70;2.08;;;;;;;35.52;22.71;100047.72;5046660;28;20473;-75
2022/08/12 13:01:52;;;;;;;4.53;1.98;;;;;;;35.36;24.17;100052.50;5055598;28;20114;-77
2022/08/12 13:04:18;;;;;;;3.83;2.10;;;;;;;34.85;24.02;100040.06;5066874;28;20618;-78
2022/08/12 13:06:45;;;;;;;4.80;1.80;;;;;;;34.49;24.25;100043.44;5066888;28;20036;-75
2022/08/12 13:09:12;;;;;;;5.40;2.10;;;;;;;34.29;24.00;100041.25;5048911;28;20040;-75
2022/08/12 13:11:39;;;;;;;4.97;2.15;;;;;;;34.49;23.14;100032.72;5029771;28;20560;-78
2022/08/12 13:14:05;;;;;;;4.43;1.92;;;;;;;34.75;22.77;100026.47;5045707;28;20025;-75
2022/08/12 13:16:31;;;;;;;6.45;2.03;;;;;;;34.87;22.79;100028.31;5045719;28;20025;-74
2022/08/12 13:18:57;;;;;;;2.65;1.95;;;;;;;34.75;22.55;100013.91;5045488;28;20524;-74
2022/08/12 13:21:31;;;;;;;3.60;2.03;;;;;;;34.96;22.40;100024.09;5063416;28;20107;-74